createdAt,value
2019-04-30T00:00:45.729Z,96885.61
2019-04-30T00:03:36.198Z,96886.44
2019-04-30T00:06:07.636Z,96883.60
2019-04-30T00:08:39.311Z,96877.33
2019-04-30T00:11:15.988Z,96869.52
2019-04-30T00:13:45.935Z,96868.30
2019-04-30T00:16:17.104Z,96868.19
2019-04-30T00:18:58.143Z,96860.50
2019-04-30T00:21:20.974Z,96863.64
2019-04-30T00:23:52.008Z,96863.45
2019-04-30T00:26:25.304Z,96859.70
2019-04-30T00:28:56.564Z,96862.23
2019-04-30T00:31:27.652Z,96867.30
2019-04-30T00:34:01.376Z,96866.47
2019-04-30T00:36:34.211Z,96861.30
2019-04-30T00:39:13.067Z,96870.34
2019-04-30T00:41:45.934Z,96869.94
2019-04-30T00:44:15.030Z,96871.02
2019-04-30T00:46:48.033Z,96865.88
2019-04-30T00:49:23.122Z,96865.98
2019-04-30T00:51:56.677Z,96866.77
2019-04-30T00:54:29.365Z,96866.17
2019-04-30T00:57:03.753Z,96866.39
2019-04-30T00:59:30.874Z,96868.00
2019-04-30T01:02:30.862Z,96867.59
2019-04-30T01:05:00.201Z,96872.66
2019-04-30T01:07:28.514Z,96858.28
2019-04-30T01:09:59.768Z,96862.23
2019-04-30T01:12:35.929Z,96863.64
2019-04-30T01:15:06.381Z,96859.41
2019-04-30T01:17:38.268Z,96857.36
2019-04-30T01:20:12.371Z,96850.28
2019-04-30T01:22:43.828Z,96852.81
2019-04-30T01:25:15.171Z,96849.97
2019-04-30T01:27:49.006Z,96845.52
2019-04-30T01:30:22.664Z,96845.00
2019-04-30T01:32:56.625Z,96839.64
2019-04-30T01:35:30.901Z,96834.85
2019-04-30T01:37:59.615Z,96835.88
2019-04-30T01:40:31.545Z,96838.52
2019-04-30T01:43:02.572Z,96847.55
2019-04-30T01:45:33.782Z,96837.21
2019-04-30T01:48:08.801Z,96847.74
2019-04-30T01:50:41.961Z,96835.88
2019-04-30T01:53:13.124Z,96836.28
2019-04-30T01:56:11.841Z,96830.02
2019-04-30T01:59:01.472Z,96826.67
2019-04-30T02:01:33.543Z,96822.21
2019-04-30T02:04:05.216Z,96823.03
2019-04-30T02:06:39.165Z,96819.89
2019-04-30T02:09:11.446Z,96821.10
2019-04-30T02:11:42.459Z,96816.84
2019-04-30T02:14:13.550Z,96822.62
2019-04-30T02:16:44.649Z,96816.53
2019-04-30T02:19:15.739Z,96825.64
2019-04-30T02:21:48.237Z,96820.90
2019-04-30T02:24:19.491Z,96825.34
2019-04-30T02:26:50.722Z,96824.84
2019-04-30T02:29:21.714Z,96828.80
2019-04-30T02:31:52.720Z,96832.22
2019-04-30T02:34:30.703Z,96823.00
2019-04-30T02:37:15.030Z,96827.67
2019-04-30T02:39:46.158Z,96819.86
2019-04-30T02:42:20.103Z,96821.77
2019-04-30T02:44:52.945Z,96814.68
2019-04-30T02:47:24.804Z,96821.47
2019-04-30T02:50:11.620Z,96829.91
2019-04-30T02:52:30.953Z,96822.11
2019-04-30T02:55:04.612Z,96828.07
2019-04-30T02:57:35.603Z,96821.48
2019-04-30T03:00:26.051Z,96826.45
2019-04-30T03:02:57.048Z,96830.09
2019-04-30T03:05:30.966Z,96824.43
2019-04-30T03:08:01.049Z,96826.97
2019-04-30T03:10:32.171Z,96823.20
2019-04-30T03:13:03.400Z,96821.80
2019-04-30T03:15:34.585Z,96823.11
2019-04-30T03:18:13.034Z,96816.86
2019-04-30T03:21:09.629Z,96818.06
2019-04-30T03:23:40.101Z,96814.48
2019-04-30T03:26:12.911Z,96810.25
2019-04-30T03:28:44.373Z,96809.44
2019-04-30T03:31:15.560Z,96816.22
2019-04-30T03:33:46.553Z,96818.43
2019-04-30T03:36:21.351Z,96812.58
2019-04-30T03:38:50.318Z,96815.09
2019-04-30T03:41:21.325Z,96807.91
2019-04-30T03:43:52.536Z,96802.53
2019-04-30T03:46:23.897Z,96801.52
2019-04-30T03:48:54.987Z,96802.83
2019-04-30T03:51:26.076Z,96805.98
2019-04-30T03:53:59.562Z,96804.34
2019-04-30T03:56:30.098Z,96800.40
2019-04-30T03:59:01.215Z,96806.78
2019-04-30T04:01:41.889Z,96805.26
2019-04-30T04:04:35.333Z,96802.72
2019-04-30T04:07:24.200Z,96800.20
2019-04-30T04:10:09.618Z,96803.24
2019-04-30T04:12:39.772Z,96810.91
2019-04-30T04:15:11.871Z,96812.94
2019-04-30T04:17:42.993Z,96809.81
2019-04-30T04:20:14.174Z,96813.53
2019-04-30T04:22:45.733Z,96814.37
2019-04-30T04:25:20.093Z,96815.95
2019-04-30T04:27:50.771Z,96826.29
2019-04-30T04:30:22.892Z,96816.46
2019-04-30T04:32:53.950Z,96818.19
2019-04-30T04:35:25.077Z,96823.77
2019-04-30T04:37:56.087Z,96818.27
2019-04-30T04:40:29.996Z,96826.11
2019-04-30T04:43:00.482Z,96829.66
2019-04-30T04:45:31.604Z,96827.63
2019-04-30T04:48:02.672Z,96824.91
2019-04-30T04:50:33.677Z,96830.67
2019-04-30T04:53:07.762Z,96825.70
2019-04-30T04:55:40.057Z,96824.45
2019-04-30T04:58:12.773Z,96827.73
2019-04-30T05:00:44.191Z,96823.78
2019-04-30T05:03:26.295Z,96824.68
2019-04-30T05:06:01.806Z,96829.45
2019-04-30T05:08:30.388Z,96837.24
2019-04-30T05:11:01.415Z,96833.70
2019-04-30T05:13:34.737Z,96838.78
2019-04-30T05:16:05.929Z,96836.83
2019-04-30T05:18:39.140Z,96831.56
2019-04-30T05:21:10.188Z,96830.56
2019-04-30T05:23:42.752Z,96832.58
2019-04-30T05:26:13.835Z,96834.39
2019-04-30T05:28:44.881Z,96835.31
2019-04-30T05:31:18.475Z,96839.77
2019-04-30T05:33:49.645Z,96847.38
2019-04-30T05:36:21.203Z,96851.80
2019-04-30T05:38:52.251Z,96847.27
2019-04-30T05:41:23.324Z,96849.38
2019-04-30T05:43:54.343Z,96847.77
2019-04-30T05:46:25.423Z,96846.96
2019-04-30T05:48:56.495Z,96846.73
2019-04-30T05:51:28.918Z,96845.83
2019-04-30T05:54:00.561Z,96845.63
2019-04-30T05:56:31.842Z,96848.80
2019-04-30T06:01:39.485Z,96850.02
2019-04-30T06:04:12.349Z,96854.08
2019-04-30T06:06:43.437Z,96852.76
2019-04-30T06:09:31.120Z,96852.84
2019-04-30T06:12:15.735Z,96854.66
2019-04-30T06:15:01.495Z,96853.14
2019-04-30T06:17:32.629Z,96864.61
2019-04-30T06:20:15.548Z,96864.81
2019-04-30T06:22:38.493Z,96868.24
2019-04-30T06:25:10.828Z,96872.52
2019-04-30T06:27:42.547Z,96869.97
2019-04-30T06:30:14.336Z,96868.86
2019-04-30T06:32:46.095Z,96867.97
2019-04-30T06:35:19.381Z,96866.13
2019-04-30T06:37:51.467Z,96866.35
2019-04-30T06:40:22.718Z,96871.31
2019-04-30T06:42:53.984Z,96863.30
2019-04-30T06:45:29.007Z,96866.94
2019-04-30T06:48:02.482Z,96864.31
2019-04-30T06:50:34.219Z,96869.58
2019-04-30T06:53:05.663Z,96873.63
2019-04-30T06:55:39.024Z,96873.11
2019-04-30T06:58:15.032Z,96872.28
2019-04-30T07:00:43.722Z,96867.55
2019-04-30T07:03:15.043Z,96868.75
2019-04-30T07:05:46.074Z,96870.16
2019-04-30T07:08:56.121Z,96868.55
2019-04-30T07:11:25.574Z,96882.60
2019-04-30T07:13:56.699Z,96878.80
2019-04-30T07:16:29.844Z,96881.23
2019-04-30T07:19:00.627Z,96883.24
2019-04-30T07:21:31.876Z,96891.42
2019-04-30T07:24:04.444Z,96884.45
2019-04-30T07:26:35.579Z,96883.14
2019-04-30T07:29:06.901Z,96884.45
2019-04-30T07:31:39.358Z,96892.28
2019-04-30T07:34:10.426Z,96897.30
2019-04-30T07:36:48.302Z,96890.09
2019-04-30T07:39:14.575Z,96885.03
2019-04-30T07:41:45.754Z,96891.61
2019-04-30T07:44:31.001Z,96891.61
2019-04-30T07:46:49.646Z,96889.88
2019-04-30T07:49:20.797Z,96897.30
2019-04-30T07:51:52.836Z,96894.86
2019-04-30T07:54:24.348Z,96904.69
2019-04-30T07:56:55.436Z,96897.81
2019-04-30T07:59:26.438Z,96898.42
2019-04-30T08:02:07.482Z,96904.58
2019-04-30T08:05:10.350Z,96911.17
2019-04-30T08:07:40.278Z,96910.88
2019-04-30T08:10:13.012Z,96912.50
2019-04-30T08:12:44.921Z,96918.67
2019-04-30T08:15:16.785Z,96916.23
2019-04-30T08:18:02.207Z,96918.78
2019-04-30T08:20:20.826Z,96917.76
2019-04-30T08:22:51.815Z,96915.23
2019-04-30T08:25:22.903Z,96916.25
2019-04-30T08:27:53.895Z,96917.96
2019-04-30T08:30:26.893Z,96919.08
2019-04-30T08:32:59.600Z,96926.08
2019-04-30T08:35:30.486Z,96929.94
2019-04-30T08:38:02.003Z,96930.42
2019-04-30T08:40:33.109Z,96929.41
2019-04-30T08:43:04.193Z,96935.09
2019-04-30T08:45:35.258Z,96930.03
2019-04-30T08:48:06.699Z,96931.38
2019-04-30T08:50:39.434Z,96929.33
2019-04-30T08:53:11.520Z,96927.78
2019-04-30T08:55:42.956Z,96932.56
2019-04-30T08:58:15.271Z,96926.45
2019-04-30T09:00:48.457Z,96922.00
2019-04-30T09:03:19.491Z,96926.13
2019-04-30T09:06:06.961Z,96923.79
2019-04-30T09:08:40.464Z,96931.61
2019-04-30T09:11:22.372Z,96930.72
2019-04-30T09:13:45.548Z,96932.84
2019-04-30T09:16:16.646Z,96932.72
2019-04-30T09:18:49.548Z,96934.16
2019-04-30T09:21:20.513Z,96938.91
2019-04-30T09:23:52.944Z,96934.56
2019-04-30T09:26:23.963Z,96937.52
2019-04-30T09:28:54.967Z,96938.11
2019-04-30T09:31:25.979Z,96941.86
2019-04-30T09:34:00.173Z,96943.36
2019-04-30T09:36:29.763Z,96943.27
2019-04-30T09:39:01.541Z,96942.48
2019-04-30T09:41:34.422Z,96943.47
2019-04-30T09:44:06.066Z,96947.86
2019-04-30T09:46:38.908Z,96942.37
2019-04-30T09:49:10.084Z,96933.53
2019-04-30T09:51:41.416Z,96935.11
2019-04-30T09:54:13.467Z,96940.03
2019-04-30T09:56:44.878Z,96938.60
2019-04-30T09:59:15.984Z,96930.66
2019-04-30T10:01:47.193Z,96932.09
2019-04-30T10:04:20.406Z,96929.87
2019-04-30T10:06:51.229Z,96928.87
2019-04-30T10:09:23.622Z,96925.03
2019-04-30T10:12:09.683Z,96927.98
2019-04-30T10:14:41.116Z,96913.84
2019-04-30T10:17:23.533Z,96919.84
2019-04-30T10:19:54.853Z,96913.52
2019-04-30T10:22:26.337Z,96915.66
2019-04-30T10:24:59.536Z,96912.49
2019-04-30T10:27:30.440Z,96915.84
2019-04-30T10:30:01.680Z,96910.36
2019-04-30T10:32:34.268Z,96908.19
2019-04-30T10:35:05.515Z,96909.05
2019-04-30T10:37:38.610Z,96911.58
2019-04-30T10:40:10.462Z,96905.34
2019-04-30T10:42:41.571Z,96896.80
2019-04-30T10:45:13.079Z,96896.55
2019-04-30T10:47:44.212Z,96897.22
2019-04-30T10:50:15.593Z,96893.79
2019-04-30T10:52:46.785Z,96893.80
2019-04-30T10:55:18.084Z,96891.65
2019-04-30T10:57:49.587Z,96894.38
2019-04-30T11:00:36.414Z,96893.80
2019-04-30T11:03:19.219Z,96888.27
2019-04-30T11:05:42.918Z,96890.43
2019-04-30T11:08:14.041Z,96896.11
2019-04-30T11:10:45.483Z,96890.64
2019-04-30T11:13:16.572Z,96888.73
2019-04-30T11:15:49.191Z,96891.09
2019-04-30T11:18:20.579Z,96893.75
2019-04-30T11:20:51.961Z,96895.50
2019-04-30T11:23:23.242Z,96893.14
2019-04-30T11:25:55.213Z,96892.41
2019-04-30T11:28:27.604Z,96889.85
2019-04-30T11:31:34.393Z,96889.05
2019-04-30T11:34:06.992Z,96878.95
2019-04-30T11:36:39.185Z,96885.94
2019-04-30T11:39:16.347Z,96881.84
2019-04-30T11:41:47.535Z,96877.66
2019-04-30T11:44:30.295Z,96863.72
2019-04-30T11:47:40.658Z,96868.56
2019-04-30T11:50:20.314Z,96867.91
2019-04-30T11:52:51.786Z,96865.40
2019-04-30T11:55:22.919Z,96872.08
2019-04-30T11:57:54.372Z,96871.51
2019-04-30T12:00:31.396Z,96872.90
2019-04-30T12:03:02.495Z,96866.89
2019-04-30T12:05:33.491Z,96867.25
2019-04-30T12:08:15.276Z,96857.70
2019-04-30T12:11:11.181Z,96852.77
2019-04-30T12:13:42.248Z,96860.23
2019-04-30T12:16:13.369Z,96860.95
2019-04-30T12:18:44.738Z,96862.66
2019-04-30T12:21:15.871Z,96863.16
2019-04-30T12:23:47.011Z,96857.20
2019-04-30T12:26:19.074Z,96858.47
2019-04-30T12:28:50.093Z,96850.53
2019-04-30T12:31:21.424Z,96850.09
2019-04-30T12:33:52.598Z,96850.91
2019-04-30T12:36:23.942Z,96853.36
2019-04-30T12:38:54.974Z,96848.75
2019-04-30T12:41:26.059Z,96847.81
2019-04-30T12:43:58.052Z,96844.05
2019-04-30T12:46:29.131Z,96843.30
2019-04-30T12:49:18.992Z,96841.95
2019-04-30T12:51:55.591Z,96837.48
2019-04-30T12:54:41.567Z,96835.39
2019-04-30T12:57:31.972Z,96840.29
2019-04-30T13:00:03.548Z,96830.54
2019-04-30T13:02:36.184Z,96828.37
2019-04-30T13:05:08.797Z,96835.44
2019-04-30T13:07:40.961Z,96834.37
2019-04-30T13:10:13.882Z,96821.45
2019-04-30T13:12:46.018Z,96825.83
2019-04-30T13:15:17.683Z,96822.44
2019-04-30T13:17:50.140Z,96824.33
2019-04-30T13:20:23.953Z,96821.45
2019-04-30T13:22:54.265Z,96813.95
2019-04-30T13:25:33.910Z,96823.65
2019-04-30T13:28:04.249Z,96823.75
2019-04-30T13:30:35.407Z,96816.42
2019-04-30T13:33:15.034Z,96815.85
2019-04-30T13:35:46.080Z,96803.23
2019-04-30T13:38:21.933Z,96801.91
2019-04-30T13:41:08.874Z,96798.61
2019-04-30T13:44:01.106Z,96800.90
2019-04-30T13:46:32.250Z,96799.86
2019-04-30T13:49:03.358Z,96793.23
2019-04-30T13:51:34.451Z,96794.03
2019-04-30T13:54:05.784Z,96796.45
2019-04-30T13:56:36.827Z,96790.75
2019-04-30T13:59:07.988Z,96790.98
2019-04-30T14:01:39.607Z,96793.81
2019-04-30T14:04:20.777Z,96787.28
2019-04-30T14:07:01.005Z,96788.18
2019-04-30T14:09:33.310Z,96787.73
2019-04-30T14:12:04.418Z,96792.48
2019-04-30T14:14:35.435Z,96790.16
2019-04-30T14:17:06.552Z,96789.70
2019-04-30T14:19:37.797Z,96787.64
2019-04-30T14:22:09.599Z,96788.51
2019-04-30T14:24:40.758Z,96780.11
2019-04-30T14:27:13.121Z,96788.89
2019-04-30T14:29:44.143Z,96779.56
2019-04-30T14:32:15.198Z,96781.62
2019-04-30T14:34:46.224Z,96776.67
2019-04-30T14:37:17.565Z,96780.29
2019-04-30T14:39:48.945Z,96779.01
2019-04-30T14:42:21.317Z,96779.52
2019-04-30T14:45:01.122Z,96778.19
2019-04-30T14:47:45.994Z,96781.44
2019-04-30T14:50:19.051Z,96777.45
2019-04-30T14:52:58.117Z,96781.16
2019-04-30T14:55:44.881Z,96781.58
2019-04-30T14:58:40.730Z,96773.29
2019-04-30T15:01:24.149Z,96779.27
2019-04-30T15:03:55.496Z,96773.75
2019-04-30T15:06:26.828Z,96771.89
2019-04-30T15:08:59.138Z,96776.36
2019-04-30T15:11:30.338Z,96771.42
2019-04-30T15:14:01.600Z,96767.94
2019-04-30T15:16:32.682Z,96766.16
2019-04-30T15:19:03.948Z,96768.41
2019-04-30T15:21:34.968Z,96767.39
2019-04-30T15:24:19.293Z,96762.09
2019-04-30T15:26:57.736Z,96757.11
2019-04-30T15:29:23.181Z,96750.11
2019-04-30T15:31:54.321Z,96757.39
2019-04-30T15:34:25.461Z,96757.20
2019-04-30T15:36:56.612Z,96757.09
2019-04-30T15:39:35.834Z,96759.67
2019-04-30T15:42:07.619Z,96758.93
2019-04-30T15:44:42.608Z,96755.63
2019-04-30T15:47:13.353Z,96750.32
2019-04-30T15:49:44.695Z,96756.37
2019-04-30T15:52:15.780Z,96750.37
2019-04-30T15:54:46.851Z,96753.11
2019-04-30T15:57:18.953Z,96756.63
2019-04-30T15:59:50.127Z,96752.18
2019-04-30T16:02:53.694Z,96748.52
2019-04-30T16:05:22.735Z,96750.36
2019-04-30T16:08:06.187Z,96742.70
2019-04-30T16:11:07.246Z,96752.41
2019-04-30T16:13:55.593Z,96746.61
2019-04-30T16:16:29.623Z,96748.94
2019-04-30T16:19:00.648Z,96747.25
2019-04-30T16:21:31.721Z,96751.92
2019-04-30T16:24:02.884Z,96746.85
2019-04-30T16:26:34.033Z,96747.31
2019-04-30T16:29:05.244Z,96743.29
2019-04-30T16:31:36.325Z,96744.80
2019-04-30T16:34:07.426Z,96746.50
2019-04-30T16:36:39.005Z,96743.84
2019-04-30T16:39:11.251Z,96745.77
2019-04-30T16:41:42.257Z,96748.10
2019-04-30T16:44:13.526Z,96747.78
2019-04-30T16:46:44.532Z,96749.92
2019-04-30T16:49:15.592Z,96745.17
2019-04-30T16:51:46.594Z,96738.27
2019-04-30T16:54:18.662Z,96741.05
2019-04-30T16:57:03.094Z,96742.38
2019-04-30T16:59:30.436Z,96740.70
2019-04-30T17:02:00.605Z,96744.40
2019-04-30T17:04:49.650Z,96737.21
2019-04-30T17:07:28.874Z,96741.59
2019-04-30T17:10:18.967Z,96745.53
2019-04-30T17:12:59.165Z,96739.05
2019-04-30T17:15:30.579Z,96743.81
2019-04-30T17:18:03.083Z,96739.69
2019-04-30T17:20:34.343Z,96743.72
2019-04-30T17:23:05.428Z,96735.81
2019-04-30T17:25:36.686Z,96737.09
2019-04-30T17:28:09.186Z,96735.17
2019-04-30T17:30:40.385Z,96735.17
2019-04-30T17:33:13.696Z,96733.06
2019-04-30T17:35:44.812Z,96732.52
2019-04-30T17:38:15.877Z,96726.48
2019-04-30T17:40:49.483Z,96728.91
2019-04-30T17:43:19.605Z,96733.88
2019-04-30T17:45:50.634Z,96727.38
2019-04-30T17:48:22.702Z,96731.41
2019-04-30T17:50:53.740Z,96722.81
2019-04-30T17:53:25.205Z,96730.99
2019-04-30T17:55:56.294Z,96728.83
2019-04-30T17:58:27.396Z,96729.56
2019-04-30T18:01:00.287Z,96731.02
2019-04-30T18:03:31.628Z,96735.72
2019-04-30T18:06:02.779Z,96739.59
2019-04-30T18:08:35.105Z,96738.66
2019-04-30T18:11:06.363Z,96738.61
2019-04-30T18:13:37.372Z,96738.16
2019-04-30T18:16:08.760Z,96737.46
2019-04-30T18:18:49.036Z,96729.03
2019-04-30T18:21:28.635Z,96725.23
2019-04-30T18:24:16.984Z,96729.38
2019-04-30T18:26:53.222Z,96733.79
2019-04-30T18:29:24.301Z,96735.39
2019-04-30T18:31:55.354Z,96730.67
2019-04-30T18:34:26.412Z,96734.18
2019-04-30T18:36:59.351Z,96734.73
2019-04-30T18:39:30.415Z,96744.16
2019-04-30T18:42:01.586Z,96744.41
2019-04-30T18:44:32.710Z,96748.21
2019-04-30T18:47:03.767Z,96753.53
2019-04-30T18:49:34.781Z,96750.03
2019-04-30T18:52:05.927Z,96750.11
2019-04-30T18:54:37.074Z,96755.84
2019-04-30T18:57:08.234Z,96760.20
2019-04-30T18:59:40.236Z,96762.73
2019-04-30T19:02:13.332Z,96760.17
2019-04-30T19:04:44.328Z,96762.45
2019-04-30T19:07:36.266Z,96762.88
2019-04-30T19:10:20.416Z,96762.67
2019-04-30T19:13:13.236Z,96764.00
2019-04-30T19:16:24.749Z,96770.31
2019-04-30T19:19:03.910Z,96771.09
2019-04-30T19:21:35.523Z,96770.52
2019-04-30T19:24:08.535Z,96780.73
2019-04-30T19:26:40.344Z,96785.74
2019-04-30T19:29:11.502Z,96779.91
2019-04-30T19:31:42.587Z,96790.45
2019-04-30T19:34:14.456Z,96784.63
2019-04-30T19:36:45.478Z,96790.47
2019-04-30T19:39:19.513Z,96791.59
2019-04-30T19:41:50.551Z,96794.52
2019-04-30T19:44:21.648Z,96798.05
2019-04-30T19:46:52.692Z,96792.78
2019-04-30T19:49:23.704Z,96794.80
2019-04-30T19:52:06.168Z,96794.94
2019-04-30T19:54:29.379Z,96791.59
2019-04-30T19:57:00.626Z,96794.03
2019-04-30T19:59:31.673Z,96802.90
2019-04-30T20:02:02.773Z,96797.83
2019-04-30T20:04:36.405Z,96801.55
2019-04-30T20:07:08.714Z,96799.41
2019-04-30T20:09:43.004Z,96808.34
2019-04-30T20:12:14.483Z,96807.94
2019-04-30T20:14:45.486Z,96798.70
2019-04-30T20:17:16.503Z,96810.70
2019-04-30T20:19:48.950Z,96806.67
2019-04-30T20:22:20.289Z,96800.53
2019-04-30T20:24:51.799Z,96807.57
2019-04-30T20:27:22.871Z,96806.46
2019-04-30T20:29:53.906Z,96801.61
2019-04-30T20:32:33.827Z,96810.09
2019-04-30T20:34:59.597Z,96812.36
2019-04-30T20:37:30.356Z,96799.50
2019-04-30T20:40:08.711Z,96801.77
2019-04-30T20:42:42.532Z,96803.78
2019-04-30T20:45:14.603Z,96794.52
2019-04-30T20:47:45.627Z,96794.09
2019-04-30T20:50:16.741Z,96792.95
2019-04-30T20:52:49.060Z,96796.49
2019-04-30T20:55:20.199Z,96791.58
2019-04-30T20:57:51.275Z,96789.55
2019-04-30T21:00:22.430Z,96786.07
2019-04-30T21:02:53.439Z,96788.73
2019-04-30T21:05:24.684Z,96789.00
2019-04-30T21:07:56.012Z,96781.21
2019-04-30T21:10:27.107Z,96782.38
2019-04-30T21:12:58.211Z,96785.74
2019-04-30T21:15:29.706Z,96780.62
2019-04-30T21:18:00.906Z,96777.48
2019-04-30T21:20:31.925Z,96776.20
2019-04-30T21:23:02.928Z,96772.31
2019-04-30T21:25:33.921Z,96776.31
2019-04-30T21:28:05.074Z,96773.92
2019-04-30T21:30:36.096Z,96772.49
2019-04-30T21:33:13.177Z,96774.12
2019-04-30T21:35:48.628Z,96763.70
2019-04-30T21:38:19.973Z,96771.31
2019-04-30T21:40:52.041Z,96776.59
2019-04-30T21:43:23.064Z,96774.68
2019-04-30T21:45:54.131Z,96770.42
2019-04-30T21:48:25.255Z,96773.45
2019-04-30T21:50:56.301Z,96769.50
2019-04-30T21:53:29.356Z,96770.33
2019-04-30T21:56:00.545Z,96764.14
2019-04-30T21:58:31.614Z,96768.83
2019-04-30T22:01:18.435Z,96771.45
2019-04-30T22:03:51.228Z,96768.29
2019-04-30T22:06:22.225Z,96772.47
2019-04-30T22:08:53.354Z,96771.01
2019-04-30T22:11:24.573Z,96775.45
2019-04-30T22:13:55.607Z,96773.84
2019-04-30T22:16:26.624Z,96774.95
2019-04-30T22:18:57.727Z,96773.14
2019-04-30T22:21:30.359Z,96770.09
2019-04-30T22:24:01.622Z,96766.25
2019-04-30T22:26:32.610Z,96764.83
2019-04-30T22:29:03.616Z,96767.27
2019-04-30T22:31:34.689Z,96771.41
2019-04-30T22:34:05.760Z,96773.24
2019-04-30T22:36:41.598Z,96762.41
2019-04-30T22:39:30.308Z,96764.93
2019-04-30T22:42:31.895Z,96762.50
2019-04-30T22:45:06.950Z,96768.14
2019-04-30T22:47:38.102Z,96764.89
2019-04-30T22:50:10.180Z,96765.72
2019-04-30T22:52:41.447Z,96761.37
2019-04-30T22:55:12.691Z,96757.53
2019-04-30T22:57:43.974Z,96760.27
2019-04-30T23:00:20.426Z,96755.20
2019-04-30T23:02:58.434Z,96757.14
2019-04-30T23:05:29.510Z,96759.53
2019-04-30T23:08:00.523Z,96749.45
2019-04-30T23:10:32.892Z,96751.33
2019-04-30T23:13:04.020Z,96751.83
2019-04-30T23:15:35.267Z,96753.14
2019-04-30T23:18:06.611Z,96745.08
2019-04-30T23:20:37.692Z,96749.84
2019-04-30T23:23:08.779Z,96748.13
2019-04-30T23:25:40.837Z,96753.97
2019-04-30T23:28:12.311Z,96743.84
2019-04-30T23:30:43.640Z,96742.55
2019-04-30T23:33:14.864Z,96740.44
2019-04-30T23:35:45.951Z,96742.14
2019-04-30T23:38:17.022Z,96732.02
2019-04-30T23:40:52.910Z,96727.97
2019-04-30T23:43:24.098Z,96726.76
2019-04-30T23:45:55.132Z,96721.70
2019-04-30T23:48:26.197Z,96723.02
2019-04-30T23:50:57.212Z,96727.25
2019-04-30T23:53:28.255Z,96721.13
2019-04-30T23:55:59.338Z,96726.09
2019-04-30T23:58:30.805Z,96720.84
